Time;durP1;ratioP1;P1;durP2;ratioP2;P2;SDS_P1;SDS_P2;PMS_P1;PMS_P2;Temp;Humidity;BMP_temperature;BMP_pressure;BME280_temperature;BME280_humidity;BME280_pressure;Samples;Min_cycle;Max_cycle;Signal;HPM_P1;HPM_P2
2021/03/03 00:00:31;;;;;;;;;63.60;50.00;;;;;12.75;38.64;100305.13;6206354;28;127265;-60
2021/03/03 00:03:32;;;;;;;;;65.25;49.50;;;;;12.74;38.51;100308.00;6182214;28;125290;-60
2021/03/03 00:06:33;;;;;;;;;65.00;50.00;;;;;12.70;38.46;100315.72;6183975;28;126454;-60
2021/03/03 00:09:35;;;;;;;;;65.00;48.80;;;;;12.71;38.47;100305.69;6206209;28;127007;-60
2021/03/03 00:12:37;;;;;;;;;65.25;51.00;;;;;12.66;38.55;100300.88;6190397;28;124978;-59
2021/03/03 00:15:38;;;;;;;;;70.00;53.00;;;;;12.70;38.48;100301.34;6183640;28;126504;-60
2021/03/03 00:18:39;;;;;;;;;66.60;51.00;;;;;12.60;38.53;100293.59;6185443;28;126949;-60
2021/03/03 00:21:41;;;;;;;;;62.00;49.00;;;;;12.62;38.26;100296.91;6207220;28;126715;-60
2021/03/03 00:24:42;;;;;;;;;65.50;50.00;;;;;12.37;38.45;100256.00;6184322;28;128537;-60
2021/03/03 00:27:43;;;;;;;;;67.40;52.00;;;;;12.63;38.28;100289.63;6190025;28;125317;-60
2021/03/03 00:30:49;;;;;;;;;65.00;50.80;;;;;12.56;38.49;100281.47;6207324;28;126114;-61
2021/03/03 00:33:50;;;;;;;;;63.60;51.00;;;;;12.50;38.62;100285.84;6200674;28;126457;-61
2021/03/03 00:36:51;;;;;;;;;62.60;50.00;;;;;11.73;38.26;100158.94;6185966;28;125745;-61
2021/03/03 00:39:53;;;;;;;;;63.80;50.00;;;;;12.21;38.42;100240.13;6192022;28;127710;-60
2021/03/03 00:42:54;;;;;;;;;64.60;50.40;;;;;12.50;38.34;100287.72;6189697;28;125622;-60
2021/03/03 00:45:56;;;;;;;;;62.00;49.00;;;;;12.41;38.22;100267.28;6196652;28;127721;-60
2021/03/03 00:48:58;;;;;;;;;65.75;50.25;;;;;12.57;38.18;100286.69;6199397;28;126537;-60
2021/03/03 00:51:59;;;;;;;;;64.40;49.60;;;;;12.54;44.30;100276.28;6205809;28;126506;-59
2021/03/03 00:55:01;;;;;;;;;62.00;50.00;;;;;12.20;42.76;100224.09;6198438;28;128721;-60
2021/03/03 00:58:03;;;;;;;;;62.00;48.00;;;;;12.14;40.73;100220.31;6191201;28;127378;-60
2021/03/03 01:01:25;;;;;;;;;63.40;49.00;;;;;12.54;39.29;100276.28;6202174;28;124950;-60
2021/03/03 01:04:28;;;;;;;;;62.50;47.25;;;;;12.51;38.53;100265.03;6206471;28;127247;-60
2021/03/03 01:07:30;;;;;;;;;63.00;50.00;;;;;12.49;38.28;100273.34;6206391;28;127701;-60
2021/03/03 01:10:31;;;;;;;;;64.00;50.00;;;;;12.49;38.28;100267.09;6206022;28;125867;-59
2021/03/03 01:13:35;;;;;;;;;65.00;50.00;;;;;12.42;38.00;100263.50;6220727;28;125054;-60
2021/03/03 01:16:36;;;;;;;;;63.00;49.25;;;;;12.44;38.19;100265.00;6203800;28;126096;-60
2021/03/03 01:19:46;;;;;;;;;64.00;50.00;;;;;11.76;38.00;100152.31;6184713;28;127792;-59
2021/03/03 01:22:48;;;;;;;;;62.80;49.80;;;;;12.14;38.11;100233.81;6181451;28;125578;-60
2021/03/03 01:25:49;;;;;;;;;62.00;48.00;;;;;12.25;38.27;100237.84;6203142;28;126628;-60
2021/03/03 01:28:51;;;;;;;;;61.50;49.00;;;;;12.34;38.10;100256.41;6205300;28;125928;-60
2021/03/03 01:31:52;;;;;;;;;60.60;47.00;;;;;12.30;38.13;100259.72;6222338;28;126632;-60
2021/03/03 01:34:54;;;;;;;;;57.80;46.00;;;;;12.09;37.92;100223.63;6222328;28;126552;-60
2021/03/03 01:37:55;;;;;;;;;61.40;47.40;;;;;12.25;37.96;100251.38;6206842;28;126613;-60
2021/03/03 01:40:58;;;;;;;;;59.20;47.00;;;;;12.19;37.88;100250.28;6205210;28;127033;-60
2021/03/03 01:44:00;;;;;;;;;61.40;47.00;;;;;12.19;38.06;100249.44;6205931;28;126285;-59
2021/03/03 01:47:01;;;;;;;;;62.75;48.50;;;;;12.19;38.03;100244.88;6184594;28;126015;-60
2021/03/03 01:50:05;;;;;;;;;60.60;47.00;;;;;11.98;38.08;100215.22;6165256;28;125682;-60
2021/03/03 01:53:07;;;;;;;;;60.00;46.00;;;;;11.91;38.01;100206.25;6190089;28;127874;-60
2021/03/03 01:56:11;;;;;;;;;61.20;48.20;;;;;12.22;38.00;100249.06;6205999;28;125076;-60
2021/03/03 01:59:12;;;;;;;;;61.60;48.00;;;;;12.05;37.67;100216.94;6197802;28;126539;-60
2021/03/03 02:02:14;;;;;;;;;57.00;45.00;;;;;12.18;37.95;100240.50;6193918;28;127696;-60
2021/03/03 02:05:15;;;;;;;;;60.00;46.00;;;;;12.03;38.08;100207.34;6209423;28;127590;-59
2021/03/03 02:08:22;;;;;;;;;56.00;44.60;;;;;12.17;37.91;100230.72;6210539;28;125434;-60
2021/03/03 02:11:33;;;;;;;;;59.00;45.50;;;;;12.16;37.62;100234.47;6226537;28;127283;-60
2021/03/03 02:14:39;;;;;;;;;57.20;44.00;;;;;12.10;37.82;100229.84;6209838;28;126001;-60
2021/03/03 02:17:42;;;;;;;;;51.60;42.60;;;;;11.72;37.93;100167.22;6209355;28;125423;-59
2021/03/03 02:21:12;;;;;;;;;55.80;44.00;;;;;12.06;37.81;100223.19;6210652;28;124683;-60
2021/03/03 02:24:25;;;;;;;;;56.25;45.00;;;;;12.01;38.08;100222.94;6201412;28;127964;-60
2021/03/03 02:27:28;;;;;;;;;57.00;44.60;;;;;11.82;37.85;100191.22;6201796;28;126580;-60
2021/03/03 02:30:30;;;;;;;;;54.75;44.00;;;;;11.73;37.71;100170.81;6189220;28;124932;-60
2021/03/03 02:33:32;;;;;;;;;53.00;42.60;;;;;12.03;37.68;100212.75;6184572;28;126444;-60
2021/03/03 02:36:47;;;;;;;;;52.60;42.00;;;;;11.89;37.71;100194.78;6186380;28;126036;-60
2021/03/03 02:39:50;;;;;;;;;54.33;42.33;;;;;11.77;37.86;100164.81;6197530;28;126169;-60
2021/03/03 02:42:52;;;;;;;;;51.40;42.40;;;;;11.94;37.89;100203.97;6206246;28;126051;-60
2021/03/03 02:45:54;;;;;;;;;52.00;42.00;;;;;11.89;37.88;100201.03;6196181;28;127241;-59
2021/03/03 02:48:56;;;;;;;;;52.00;43.00;;;;;11.66;38.16;100173.41;6186320;28;126948;-60
2021/03/03 02:51:57;;;;;;;;;52.33;41.33;;;;;11.70;38.14;100207.94;6184351;28;127871;-60
2021/03/03 02:54:58;;;;;;;;;52.00;41.60;;;;;11.64;38.29;100202.47;6189296;28;125779;-60
2021/03/03 02:58:02;;;;;;;;;53.00;42.60;;;;;11.58;38.58;100198.69;6208116;28;126285;-60
2021/03/03 03:01:08;;;;;;;;;50.33;41.00;;;;;11.56;38.41;100198.06;6207780;28;126070;-59
2021/03/03 03:04:12;;;;;;;;;52.60;43.40;;;;;11.47;38.50;100206.50;6208962;28;124740;-60
2021/03/03 03:07:17;;;;;;;;;52.00;41.40;;;;;11.35;38.66;100202.66;6193465;28;127169;-60
2021/03/03 03:10:20;;;;;;;;;51.00;41.20;;;;;10.86;38.96;100153.00;6181113;28;126171;-59
2021/03/03 03:13:22;;;;;;;;;52.33;43.00;;;;;10.92;39.19;100182.94;6181991;28;127424;-60
2021/03/03 03:16:24;;;;;;;;;52.50;42.50;;;;;10.93;39.25;100203.50;6197220;28;124965;-60
2021/03/03 03:19:33;;;;;;;;;52.80;43.80;;;;;10.76;39.45;100203.75;6207938;28;126529;-60
2021/03/03 03:22:34;;;;;;;;;55.00;44.00;;;;;10.63;39.69;100203.59;6185698;28;126088;-59
2021/03/03 03:25:40;;;;;;;;;55.60;44.40;;;;;10.50;39.82;100195.38;6186382;28;126581;-59
2021/03/03 03:28:41;;;;;;;;;55.40;42.00;;;;;10.38;40.12;100200.41;6184982;28;126788;-60
2021/03/03 03:31:44;;;;;;;;;53.00;42.20;;;;;10.28;40.13;100196.31;6185549;28;126631;-59
2021/03/03 03:34:46;;;;;;;;;52.20;42.20;;;;;10.19;40.36;100192.91;6185912;28;126526;-59
2021/03/03 03:37:48;;;;;;;;;55.40;44.40;;;;;9.97;40.45;100174.94;6218945;28;125320;-59
2021/03/03 03:40:49;;;;;;;;;54.50;42.50;;;;;9.74;40.42;100149.97;6209397;28;125425;-59
2021/03/03 03:43:52;;;;;;;;;55.20;42.00;;;;;9.59;40.50;100136.50;6208130;28;127252;-59
2021/03/03 03:46:53;;;;;;;;;54.20;44.00;;;;;9.39;40.50;100128.13;6202860;28;126995;-59
2021/03/03 03:49:55;;;;;;;;;51.40;41.00;;;;;9.72;40.78;100189.72;6204762;28;126388;-59
2021/03/03 03:52:58;;;;;;;;;49.40;41.00;;;;;9.48;40.81;100161.19;6202649;28;127242;-60
2021/03/03 03:56:00;;;;;;;;;49.50;41.25;;;;;9.30;41.01;100134.59;6206069;28;127111;-59
2021/03/03 03:59:02;;;;;;;;;53.40;43.00;;;;;9.53;41.25;100183.00;6208352;28;124952;-59
2021/03/03 04:02:03;;;;;;;;;52.20;42.00;;;;;9.48;41.21;100182.72;6188600;28;126197;-59
2021/03/03 04:05:05;;;;;;;;;53.00;40.80;;;;;8.96;40.84;100107.34;6186791;28;127745;-59
2021/03/03 04:08:07;;;;;;;;;50.60;40.00;;;;;8.93;41.21;100140.84;6205722;28;127597;-59
2021/03/03 04:11:09;;;;;;;;;49.25;40.25;;;;;8.69;41.60;100136.50;6208985;28;127566;-59
2021/03/03 04:14:10;;;;;;;;;52.00;41.40;;;;;8.77;41.77;100178.59;6223921;28;127681;-59
2021/03/03 04:17:11;;;;;;;;;53.00;43.20;;;;;8.68;42.17;100171.63;6221659;28;126290;-59
2021/03/03 04:20:15;;;;;;;;;51.00;41.80;;;;;8.34;42.24;100120.09;6206927;28;124391;-59
2021/03/03 04:23:16;;;;;;;;;53.00;42.25;;;;;8.60;42.48;100169.00;6194948;28;127340;-59
2021/03/03 04:26:18;;;;;;;;;50.40;41.40;;;;;8.53;42.72;100162.63;6185572;28;124984;-59
2021/03/03 04:29:19;;;;;;;;;52.00;41.60;;;;;8.50;42.60;100171.88;6182353;28;126849;-59
2021/03/03 04:32:21;;;;;;;;;54.50;43.00;;;;;8.46;42.89;100167.88;6198984;28;127446;-59
2021/03/03 04:35:23;;;;;;;;;56.40;44.00;;;;;8.41;42.89;100170.25;6192482;28;126562;-59
2021/03/03 04:38:25;;;;;;;;;57.40;44.00;;;;;8.20;43.19;100159.25;6207551;28;124428;-59
2021/03/03 04:41:26;;;;;;;;;57.40;45.00;;;;;8.25;43.14;100167.63;6195209;28;125308;-59
2021/03/03 04:44:27;;;;;;;;;52.60;43.00;;;;;8.15;43.00;100161.63;6206424;28;127804;-59
2021/03/03 04:47:29;;;;;;;;;56.25;43.75;;;;;8.08;43.23;100164.19;6218591;28;125820;-59
2021/03/03 04:50:30;;;;;;;;;54.50;43.50;;;;;7.97;43.67;100151.13;6189648;28;126225;-60
2021/03/03 04:53:32;;;;;;;;;57.00;45.60;;;;;7.92;43.61;100155.34;6184373;28;125474;-60
2021/03/03 04:56:34;;;;;;;;;56.00;44.00;;;;;7.88;43.67;100152.16;6186047;28;124797;-60
2021/03/03 04:59:35;;;;;;;;;55.60;44.60;;;;;7.52;43.81;100103.50;6183395;28;127481;-60
2021/03/03 05:02:37;;;;;;;;;57.00;45.00;;;;;7.81;43.82;100149.38;6199876;28;127405;-60
2021/03/03 05:05:38;;;;;;;;;56.60;44.60;;;;;7.77;43.96;100145.31;6188326;28;125301;-60
2021/03/03 05:08:40;;;;;;;;;57.20;45.20;;;;;7.75;43.97;100149.22;6205914;28;125176;-60
2021/03/03 05:11:41;;;;;;;;;58.00;45.60;;;;;7.70;43.98;100141.66;6169711;28;124797;-60
2021/03/03 05:14:43;;;;;;;;;59.80;46.00;;;;;7.66;44.23;100139.50;6181800;28;125292;-60
2021/03/03 05:17:44;;;;;;;;;57.40;44.80;;;;;7.71;44.62;100147.88;6180593;28;125515;-60
2021/03/03 05:20:45;;;;;;;;;60.80;48.00;;;;;7.77;44.58;100145.31;6184531;28;126448;-60
2021/03/03 05:23:47;;;;;;;;;58.00;46.00;;;;;7.80;44.53;100134.25;6197430;28;127846;-60
2021/03/03 05:26:49;;;;;;;;;60.00;46.00;;;;;7.83;44.29;100139.28;6187066;28;125609;-60
2021/03/03 05:29:50;;;;;;;;;61.00;47.00;;;;;7.78;44.10;100122.84;6182541;28;125287;-60
2021/03/03 05:32:53;;;;;;;;;62.00;47.40;;;;;7.89;43.75;100143.09;6188322;28;127702;-60
2021/03/03 05:35:56;;;;;;;;;60.80;47.00;;;;;7.83;43.61;100125.00;6208672;28;126259;-60
2021/03/03 05:38:57;;;;;;;;;58.25;46.00;;;;;7.86;44.07;100138.09;6185752;28;124026;-60
2021/03/03 05:42:02;;;;;;;;;60.00;46.60;;;;;7.88;44.10;100137.91;6203573;28;126299;-59
2021/03/03 05:45:06;;;;;;;;;61.00;46.00;;;;;7.71;44.02;100080.78;6195223;28;124958;-60
2021/03/03 05:48:33;;;;;;;;;55.20;44.80;;;;;8.14;44.03;100139.31;6209038;28;125727;-60
2021/03/03 05:51:37;;;;;;;;;55.50;44.00;;;;;7.51;43.95;100015.94;6203319;28;125977;-60
2021/03/03 05:54:39;;;;;;;;;58.20;44.40;;;;;8.41;44.09;100153.28;6205878;28;127893;-60
2021/03/03 05:57:42;;;;;;;;;55.20;43.40;;;;;8.55;43.56;100133.75;6184859;28;126692;-60
2021/03/03 06:00:44;;;;;;;;;54.20;42.40;;;;;8.54;43.27;100108.72;6194828;28;128135;-60
2021/03/03 06:03:47;;;;;;;;;55.00;43.00;;;;;8.89;43.28;100130.63;6198152;28;126032;-60
2021/03/03 06:06:49;;;;;;;;;53.00;42.40;;;;;9.17;42.71;100138.94;6187305;28;127977;-60
2021/03/03 06:09:50;;;;;;;;;54.80;43.60;;;;;9.36;42.54;100141.13;6186242;28;128345;-61
2021/03/03 06:12:52;;;;;;;;;51.80;41.80;;;;;9.55;42.24;100137.88;6207610;28;125322;-61
2021/03/03 06:15:55;;;;;;;;;55.00;44.00;;;;;9.74;41.80;100144.56;6210125;28;125124;-60
2021/03/03 06:18:58;;;;;;;;;49.33;40.33;;;;;9.94;41.53;100137.59;6210378;28;124684;-60
2021/03/03 06:22:22;;;;;;;;;51.40;42.00;;;;;10.16;41.41;100144.78;6208916;28;126469;-59
2021/03/03 06:25:24;;;;;;;;;53.00;41.00;;;;;10.38;40.72;100137.56;6185753;28;124671;-59
2021/03/03 06:28:35;;;;;;;;;51.00;42.00;;;;;10.59;40.60;100140.31;6185219;28;126313;-59
2021/03/03 06:31:39;;;;;;;;;55.00;43.00;;;;;10.86;40.02;100133.28;6186132;28;124699;-59
2021/03/03 06:34:49;;;;;;;;;50.50;41.50;;;;;11.13;38.93;100124.41;6208285;28;126089;-59
2021/03/03 06:37:55;;;;;;;;;55.60;44.00;;;;;11.38;38.67;100107.78;6210247;28;126304;-59
2021/03/03 06:41:07;;;;;;;;;53.00;42.00;;;;;11.86;37.65;100122.22;6209650;28;126857;-59
2021/03/03 06:44:09;;;;;;;;;53.00;41.60;;;;;12.56;36.59;100130.81;6203643;28;125487;-59
2021/03/03 06:47:10;;;;;;;;;50.40;40.40;;;;;13.29;34.92;100125.53;6202438;28;126328;-59
2021/03/03 06:50:13;;;;;;;;;50.00;39.25;;;;;14.13;33.63;100130.97;6210041;28;126483;-59
2021/03/03 06:53:31;;;;;;;;;45.60;37.60;;;;;15.27;32.11;100120.91;6201023;28;125236;-59
2021/03/03 06:56:42;;;;;;;;;56.50;45.33;;;;;17.18;29.30;100121.28;6183576;28;125367;-59
2021/03/03 06:59:44;;;;;;;;;36.00;30.00;;;;;19.62;25.99;100120.53;6184784;28;125833;-60
2021/03/03 07:02:46;;;;;;;;;36.50;32.25;;;;;22.08;23.15;100122.56;6188813;28;126383;-59
2021/03/03 07:05:47;;;;;;;;;42.80;35.00;;;;;23.97;20.87;100075.72;6209361;28;127140;-59
2021/03/03 07:08:59;;;;;;;;;50.00;38.00;;;;;25.97;18.87;100133.69;6209738;28;126054;-59
2021/03/03 07:12:03;;;;;;;;;48.67;40.00;;;;;27.34;17.62;100128.00;6208755;28;125885;-59
2021/03/03 07:15:09;;;;;;;;;56.00;44.00;;;;;28.53;16.62;100121.63;6186126;28;126023;-60
2021/03/03 07:18:39;;;;;;;;;51.00;41.25;;;;;29.66;15.84;100127.00;6185576;28;126244;-58
2021/03/03 07:21:40;;;;;;;;;50.00;40.40;;;;;30.45;14.51;100113.09;6184657;28;126803;-60
2021/03/03 07:24:41;;;;;;;;;49.00;39.60;;;;;31.32;14.31;100114.88;6204372;28;127278;-60
2021/03/03 07:27:44;;;;;;;;;45.80;37.80;;;;;31.83;13.79;100092.47;6225224;28;126589;-60
2021/03/03 07:30:46;;;;;;;;;46.40;38.40;;;;;32.62;13.44;100105.69;6205287;28;127024;-60
2021/03/03 07:33:50;;;;;;;;;45.80;38.20;;;;;33.28;12.67;100110.66;6205672;28;127191;-58
2021/03/03 07:36:53;;;;;;;;;45.00;37.60;;;;;33.49;12.32;100075.88;6204629;28;127161;-58
2021/03/03 07:40:05;;;;;;;;;43.00;35.40;;;;;34.08;11.98;100088.69;6208169;28;127510;-58
2021/03/03 07:43:08;;;;;;;;;45.00;37.20;;;;;34.71;11.37;100106.78;6204803;28;124777;-58
2021/03/03 07:46:10;;;;;;;;;47.20;39.00;;;;;35.06;11.36;100104.25;6205953;28;125112;-59
2021/03/03 07:49:13;;;;;;;;;48.60;39.60;;;;;35.54;11.33;100106.84;6205150;28;124293;-58
2021/03/03 07:52:19;;;;;;;;;49.00;40.00;;;;;35.79;11.16;100104.75;6191048;28;125203;-60
2021/03/03 07:55:22;;;;;;;;;47.40;39.00;;;;;36.15;10.88;100108.50;6199726;28;124118;-60
2021/03/03 07:58:26;;;;;;;;;48.80;40.00;;;;;36.63;10.75;100104.47;6181888;28;125279;-60
2021/03/03 08:01:28;;;;;;;;;49.40;39.00;;;;;37.00;10.96;100093.63;6204500;28;126033;-60
2021/03/03 08:04:35;;;;;;;;;47.80;39.00;;;;;37.20;10.47;100096.09;6184401;28;124635;-60
2021/03/03 08:07:38;;;;;;;;;44.80;36.20;;;;;37.48;10.61;100089.41;6180898;28;125312;-58
2021/03/03 08:10:44;;;;;;;;;45.00;36.00;;;;;37.59;9.88;100062.28;6182929;28;123733;-60
2021/03/03 08:13:46;;;;;;;;;37.20;32.00;;;;;38.04;9.85;100078.41;6182956;28;124962;-60
2021/03/03 08:17:05;;;;;;;;;36.00;32.00;;;;;38.20;9.81;100081.06;6201040;28;125363;-60
2021/03/03 08:20:08;;;;;;;;;34.40;30.00;;;;;38.10;9.47;100012.94;6208594;28;126996;-60
2021/03/03 08:23:09;;;;;;;;;35.75;31.75;;;;;38.58;9.05;100072.41;6208793;28;127545;-60
2021/03/03 08:26:16;;;;;;;;;35.50;32.00;;;;;38.66;9.55;100073.34;6210574;28;126748;-60
2021/03/03 08:29:27;;;;;;;;;33.00;30.75;;;;;38.66;9.56;100065.69;6205663;28;126122;-60
2021/03/03 08:32:28;;;;;;;;;37.20;31.00;;;;;38.76;9.17;100053.72;6208851;28;126104;-60
2021/03/03 08:35:38;;;;;;;;;36.60;32.00;;;;;38.81;9.28;100070.31;6207046;28;126206;-60
2021/03/03 08:38:40;;;;;;;;;35.60;31.00;;;;;38.53;8.94;100036.94;6208439;28;126563;-60
2021/03/03 08:41:50;;;;;;;;;34.25;30.50;;;;;39.03;9.47;100070.63;6208558;28;124957;-60
2021/03/03 08:45:09;;;;;;;;;33.00;30.00;;;;;38.93;9.08;100063.66;6207850;28;124978;-60
2021/03/03 08:48:10;;;;;;;;;33.60;30.00;;;;;38.92;8.88;100053.56;6190243;28;125042;-60
2021/03/03 08:51:23;;;;;;;;;28.80;26.00;;;;;39.05;8.96;100054.94;6198192;28;125016;-60
2021/03/03 08:54:57;;;;;;;;;26.40;25.00;;;;;39.22;8.93;100059.16;6189439;28;123983;-60
2021/03/03 08:57:58;;;;;;;;;31.80;28.80;;;;;39.22;9.04;100050.69;6195593;28;126326;-60
2021/03/03 09:01:00;;;;;;;;;31.00;29.60;;;;;39.23;9.22;100049.50;6208829;28;126815;-60
2021/03/03 09:04:01;;;;;;;;;38.00;32.00;;;;;39.17;9.12;100018.00;6207604;28;125517;-58
2021/03/03 09:07:26;;;;;;;;;34.80;30.80;;;;;39.11;9.09;100007.44;6206833;28;126558;-60
2021/03/03 09:10:30;;;;;;;;;34.00;32.00;;;;;39.27;9.40;100017.31;6210460;28;123906;-60
2021/03/03 09:13:36;;;;;;;;;33.50;30.00;;;;;39.51;9.18;100035.72;6212272;28;124137;-60
2021/03/03 09:16:55;;;;;;;;;27.75;25.50;;;;;39.47;8.84;100006.66;6210972;28;125365;-60
2021/03/03 09:19:59;;;;;;;;;25.00;23.40;;;;;39.54;8.91;100003.88;6210807;28;124010;-60
2021/03/03 09:23:00;;;;;;;;;28.60;25.60;;;;;39.83;8.61;100033.22;6212450;28;125981;-60
2021/03/03 09:26:02;;;;;;;;;23.00;22.20;;;;;39.79;8.92;100032.38;6212272;28;124701;-58
2021/03/03 09:29:05;;;;;;;;;25.00;23.50;;;;;39.93;8.59;100029.66;6212295;28;126384;-58
2021/03/03 09:32:11;;;;;;;;;26.00;21.60;;;;;39.72;8.59;99984.28;6227731;28;127049;-58
2021/03/03 09:35:30;;;;;;;;;22.00;22.00;;;;;39.97;7.97;100024.06;6212950;28;124013;-58
2021/03/03 09:38:31;;;;;;;;;22.00;21.00;;;;;39.84;7.93;100032.00;6210116;28;127332;-59
2021/03/03 09:41:34;;;;;;;;;20.40;20.00;;;;;39.74;8.71;100019.38;6212181;28;126490;-59
2021/03/03 09:44:46;;;;;;;;;22.20;19.00;;;;;39.85;7.62;100025.16;6211991;28;126533;-60
2021/03/03 09:47:49;;;;;;;;;22.00;20.00;;;;;39.56;8.19;99995.03;6210887;28;125855;-60
2021/03/03 09:50:50;;;;;;;;;24.00;21.00;;;;;39.52;8.01;99978.06;6211745;28;127137;-60
2021/03/03 09:53:56;;;;;;;;;20.40;18.00;;;;;39.74;8.01;100015.75;6210576;28;125248;-60
2021/03/03 09:57:02;;;;;;;;;19.00;18.00;;;;;39.76;7.72;100014.19;6231492;27;126116;-60
2021/03/03 10:00:08;;;;;;;;;18.60;16.60;;;;;39.78;8.34;100005.34;6211342;28;126795;-60
2021/03/03 10:03:14;;;;;;;;;17.40;15.40;;;;;39.44;7.80;99967.13;6211601;28;125592;-60
2021/03/03 10:06:17;;;;;;;;;16.00;14.00;;;;;39.48;7.72;100004.66;6211537;28;126656;-60
2021/03/03 10:09:19;;;;;;;;;15.00;14.00;;;;;39.47;8.05;100001.00;6200770;28;124138;-60
2021/03/03 10:12:41;;;;;;;;;14.00;13.75;;;;;39.39;7.71;99991.66;6201118;28;124517;-59
2021/03/03 10:15:46;;;;;;;;;17.00;13.00;;;;;39.39;7.86;99990.88;6186090;28;124778;-60
2021/03/03 10:19:03;;;;;;;;;14.50;13.00;;;;;39.55;7.96;99982.94;6192983;28;126618;-59
2021/03/03 10:22:08;;;;;;;;;20.00;17.60;;;;;39.45;8.21;99982.81;6211337;28;126311;-59
2021/03/03 10:25:12;;;;;;;;;16.00;16.00;;;;;39.42;8.17;99968.31;6211153;28;126583;-59
2021/03/03 10:28:15;;;;;;;;;15.60;15.00;;;;;39.14;8.30;99937.00;6209806;28;127759;-59
2021/03/03 10:31:19;;;;;;;;;16.00;15.67;;;;;38.92;8.32;99935.13;6211567;28;124899;-59
2021/03/03 10:34:21;;;;;;;;;15.20;14.00;;;;;39.04;7.86;99948.97;6210878;28;124466;-59
2021/03/03 10:37:26;;;;;;;;;13.00;12.80;;;;;39.21;8.12;99955.97;6210873;28;125287;-60
2021/03/03 10:40:37;;;;;;;;;15.80;13.80;;;;;39.31;7.66;99958.09;6209086;28;124724;-59
2021/03/03 10:43:46;;;;;;;;;14.80;13.00;;;;;39.30;8.12;99957.28;6210109;28;126484;-59
2021/03/03 10:46:48;;;;;;;;;14.00;13.00;;;;;39.32;7.73;99945.63;6210606;28;126139;-59
2021/03/03 10:50:04;;;;;;;;;13.60;13.40;;;;;39.27;7.57;99940.31;6200419;28;126910;-59
2021/03/03 10:53:06;;;;;;;;;14.60;13.00;;;;;39.26;8.35;99950.78;6184766;28;126452;-58
2021/03/03 10:56:27;;;;;;;;;13.40;12.60;;;;;39.34;8.21;99929.94;6184317;28;126144;-58
2021/03/03 10:59:28;;;;;;;;;13.50;12.50;;;;;39.27;8.38;99915.75;6185261;28;125079;-59
2021/03/03 11:02:30;;;;;;;;;13.80;13.00;;;;;39.34;8.07;99900.94;6184502;28;125673;-60
2021/03/03 11:05:32;;;;;;;;;12.40;11.40;;;;;39.53;7.44;99894.22;6183089;28;126786;-59
2021/03/03 11:08:40;;;;;;;;;12.00;11.00;;;;;39.60;7.49;99877.31;6185159;28;125118;-59
2021/03/03 11:11:55;;;;;;;;;11.00;10.00;;;;;39.74;7.25;99897.16;6184082;28;126467;-60
2021/03/03 11:14:56;;;;;;;;;11.00;9.80;;;;;39.75;7.56;99881.84;6200913;28;125667;-59
2021/03/03 11:17:57;;;;;;;;;13.00;13.00;;;;;39.64;7.50;99853.56;6183511;28;126379;-60
2021/03/03 11:20:59;;;;;;;;;15.00;13.20;;;;;39.82;7.43;99876.28;6207391;28;127184;-59
2021/03/03 11:24:01;;;;;;;;;9.00;9.00;;;;;39.82;7.10;99873.47;6199243;28;129622;-60
2021/03/03 11:27:02;;;;;;;;;11.00;10.00;;;;;39.70;7.04;99868.09;6185028;28;125236;-60
2021/03/03 11:30:05;;;;;;;;;10.40;10.00;;;;;39.74;7.16;99864.09;6184593;28;125800;-59
2021/03/03 11:33:07;;;;;;;;;10.00;9.00;;;;;39.81;7.29;99858.53;6183557;28;126297;-59
2021/03/03 11:36:08;;;;;;;;;13.00;12.00;;;;;39.94;7.28;99849.72;6184610;28;124859;-60
2021/03/03 11:39:11;;;;;;;;;9.00;9.00;;;;;39.68;6.94;99811.25;6182567;28;124229;-60
2021/03/03 11:42:12;;;;;;;;;8.40;7.60;;;;;39.40;6.86;99798.56;6182858;28;127062;-60
2021/03/03 11:45:14;;;;;;;;;8.00;7.25;;;;;39.48;7.15;99849.44;6183483;28;127659;-60
2021/03/03 11:48:19;;;;;;;;;8.00;7.40;;;;;38.73;6.92;99800.00;6187713;28;124933;-59
2021/03/03 11:51:20;;;;;;;;;10.40;9.60;;;;;38.73;7.43;99803.63;6207961;28;126381;-59
2021/03/03 11:54:38;;;;;;;;;9.67;8.00;;;;;38.79;7.45;99823.81;6209505;28;124187;-60
2021/03/03 11:57:40;;;;;;;;;9.00;8.00;;;;;38.52;7.46;99804.22;6208345;28;126635;-59
2021/03/03 12:00:41;;;;;;;;;9.00;8.00;;;;;38.62;6.99;99824.44;6209204;28;126060;-59
2021/03/03 12:03:43;;;;;;;;;7.40;7.00;;;;;38.51;7.27;99824.34;6208946;28;127315;-60
2021/03/03 12:06:44;;;;;;;;;11.00;10.00;;;;;38.45;7.83;99812.63;6224092;28;125752;-59
2021/03/03 12:09:46;;;;;;;;;9.60;9.00;;;;;38.51;7.80;99811.03;6209098;28;124899;-60
2021/03/03 12:12:47;;;;;;;;;11.60;11.00;;;;;38.48;7.86;99806.19;6207402;28;126843;-60
2021/03/03 12:15:48;;;;;;;;;10.00;10.00;;;;;38.40;7.75;99796.03;6207537;28;125968;-59
2021/03/03 12:18:51;;;;;;;;;13.20;12.00;;;;;38.17;7.85;99789.72;6199935;28;126113;-59
2021/03/03 12:21:53;;;;;;;;;12.50;12.00;;;;;37.92;8.04;99766.88;6184797;28;125360;-59
2021/03/03 12:24:54;;;;;;;;;12.00;11.00;;;;;37.93;8.24;99782.56;6199302;28;126578;-59
2021/03/03 12:27:56;;;;;;;;;10.60;9.60;;;;;37.56;8.31;99743.09;6183818;28;127053;-59
2021/03/03 12:30:58;;;;;;;;;9.00;8.00;;;;;37.54;8.24;99759.53;6184080;28;127018;-59
2021/03/03 12:34:00;;;;;;;;;10.00;9.00;;;;;37.23;8.47;99740.19;6198778;28;126607;-59
2021/03/03 12:37:01;;;;;;;;;11.00;9.00;;;;;37.06;7.79;99744.31;6184134;28;126196;-59
2021/03/03 12:40:04;;;;;;;;;9.00;8.00;;;;;36.75;8.32;99747.44;6183856;28;125903;-59
2021/03/03 12:43:05;;;;;;;;;6.20;6.20;;;;;36.03;8.44;99693.91;6182142;28;126527;-59
2021/03/03 12:46:07;;;;;;;;;10.00;9.00;;;;;35.73;8.77;99692.91;6183793;28;127010;-59
2021/03/03 12:49:08;;;;;;;;;7.00;7.00;;;;;35.57;8.76;99716.25;6185020;28;124747;-59
2021/03/03 12:52:10;;;;;;;;;8.00;7.60;;;;;35.24;8.82;99721.50;6190440;28;126590;-59
2021/03/03 12:55:12;;;;;;;;;7.20;7.00;;;;;34.76;9.06;99705.91;6205200;28;125314;-59
2021/03/03 12:58:13;;;;;;;;;7.00;7.00;;;;;34.49;9.59;99704.03;6206426;28;125558;-60
2021/03/03 13:01:15;;;;;;;;;6.00;6.00;;;;;34.25;9.24;99708.63;6201743;28;124393;-60
2021/03/03 13:04:17;;;;;;;;;7.40;6.00;;;;;33.89;9.80;99686.41;6198027;28;126569;-59
2021/03/03 13:07:18;;;;;;;;;6.60;6.00;;;;;33.60;9.68;99675.56;6180952;28;126523;-59
2021/03/03 13:10:20;;;;;;;;;6.00;4.00;;;;;33.33;9.54;99694.72;6181791;28;127493;-59
2021/03/03 13:13:21;;;;;;;;;5.00;4.00;;;;;32.43;9.84;99599.28;6179238;28;126648;-59
2021/03/03 13:16:22;;;;;;;;;4.60;4.00;;;;;32.88;9.62;99686.53;6197868;28;127716;-59
2021/03/03 13:19:24;;;;;;;;;5.60;4.60;;;;;32.66;10.12;99676.66;6195002;28;126265;-59
2021/03/03 13:22:25;;;;;;;;;3.60;3.60;;;;;32.48;9.35;99675.22;6205012;28;126405;-59
2021/03/03 13:25:27;;;;;;;;;5.00;3.00;;;;;32.18;9.76;99643.91;6206448;28;125325;-59
2021/03/03 13:28:28;;;;;;;;;3.00;3.00;;;;;31.83;9.82;99632.31;6206754;28;125453;-59
2021/03/03 13:31:30;;;;;;;;;4.40;3.60;;;;;31.78;10.04;99643.69;6204811;28;124381;-60
2021/03/03 13:34:32;;;;;;;;;3.00;3.00;;;;;31.59;9.83;99654.53;6172353;28;124306;-59
2021/03/03 13:37:33;;;;;;;;;4.40;4.00;;;;;31.22;10.18;99600.59;6205256;28;124146;-59
2021/03/03 13:40:39;;;;;;;;;3.00;3.00;;;;;31.14;9.89;99618.19;6206828;28;126511;-59
2021/03/03 13:43:41;;;;;;;;;3.00;2.60;;;;;30.96;10.11;99598.00;6189040;28;125030;-59
2021/03/03 13:46:43;;;;;;;;;3.67;3.00;;;;;30.75;10.04;99597.16;6206917;28;128382;-59
2021/03/03 13:49:44;;;;;;;;;4.00;4.00;;;;;30.97;10.88;99630.25;6205350;28;125500;-60
2021/03/03 13:52:46;;;;;;;;;4.00;4.00;;;;;30.61;10.22;99593.81;6205421;28;127067;-59
2021/03/03 13:55:47;;;;;;;;;4.00;3.00;;;;;30.59;10.29;99601.72;6208146;28;126468;-60